ENSD/SDN METAR and TAF weather

Enter ICAO airport designator
Station Type Date Time Source
ENSD METAR 2019/08/21 20:20 UTC NOAA

ENSD 212020Z 13005KT 060V160 9999 FEW070 12/08 Q1020 RMK WIND 1138FT 07004KT


Station Type Date Time Source
ENSD Decoded METAR 2019/08/21 20:20 UTC NOAA

Station name not available
Aug 21, 2019 - 04:20 PM EDT / 2019.08.21 2020 UTC
Wind: from the SE (130 degrees) at 6 MPH (5 KT) (direction variable):0
Visibility: greater than 7 mile(s):0
Sky conditions: mostly clear
Temperature: 53 F (12 C)
Dew Point: 46 F (8 C)
Relative Humidity: 76%
Pressure (altimeter): 30.12 in. Hg (1020 hPa)
ob: ENSD 212020Z 13005KT 060V160 9999 FEW070 12/08 Q1020 RMK WIND 1138FT 07004KT
cycle: 20

Station Type Date Time Source
ENSD TAF UTC NOAA

Error!

Example: see airport list